WetterOnline ( http://www.wetteronline.de )

Wetter aktuell Lübeck

Aktuelles Wetter: Boltenhagen (17m)

6-stündlich | Neueste Meldungen
Ortszeit Temperatur Wetter
Fr, 18.01. 7:00 -0.4° C wolkenlos
Fr, 18.01. 1:00 1.2° C bedeckt
Do, 17.01. 19:00 0.8° C leichter Schneefall
Do, 17.01. 13:00 5.7° C bewölkt
Do, 17.01. 7:00 4.1° C leicht bewölkt
Do, 17.01. 1:00 4.3° C leichter Regen
Mi, 16.01. 19:00 5.5° C bewölkt
Mi, 16.01. 13:00 7.8° C bewölkt
Ortszeit Temperatur Wetter
Fr, 18.01. 10:30 -0.3° C leicht bewölkt
Fr, 18.01. 10:20 -0.3° C leicht bewölkt
Fr, 18.01. 10:10 -0.7° C leicht bewölkt
Fr, 18.01. 10:00 -1.8° C wolkig
Fr, 18.01. 9:50 -1.8° C wolkig
Fr, 18.01. 9:40 -1.8° C leicht bewölkt
Fr, 18.01. 9:30 -2.1° C wolkig
Fr, 18.01. 9:00 -2.6° C fast wolkenlos
Fr, 18.01. 8:30 -2.6° C wolkenlos
Fr, 18.01. 8:00 -2.1° C wolkenlos
Fr, 18.01. 7:30 -1.1° C wolkenlos
Ortszeit Relative Feuchte Sichtweite
Fr, 18.01. 7:00 83% 50 km
Fr, 18.01. 1:00 70% 45 km
Do, 17.01. 19:00 92% 2.5 km
Do, 17.01. 13:00 73% 40 km
Do, 17.01. 7:00 87% 30 km
Do, 17.01. 1:00 93% 4.7 km
Mi, 16.01. 19:00 93% 9 km
Mi, 16.01. 13:00 81% 18 km
Ortszeit Relative Feuchte Sichtweite
Fr, 18.01. 10:30 72% 35 km
Fr, 18.01. 10:20 72% -
Fr, 18.01. 10:10 74% -
Fr, 18.01. 10:00 80% 40 km
Fr, 18.01. 9:50 80% -
Fr, 18.01. 9:40 82% -
Fr, 18.01. 9:30 84% 40 km
Fr, 18.01. 9:00 85% 45 km
Fr, 18.01. 8:30 87% 40 km
Fr, 18.01. 8:00 88% 35 km
Fr, 18.01. 7:30 88% 40 km
Ortszeit Niederschlagsmenge Niederschlagsart
Fr, 18.01. 7:00 0.5 l/m2 in 12 Std. -
Fr, 18.01. 1:00 0.5 l/m2 in 6 Std. Schnee, Sprühregen
Do, 17.01. 19:00 0.9 l/m2 in 12 Std. Schnee, Regen
Do, 17.01. 13:00 0.1 l/m2 in 6 Std. Regen
Do, 17.01. 7:00 2 l/m2 in 12 Std. Regen
Do, 17.01. 1:00 0.6 l/m2 in 6 Std. Regen
Mi, 16.01. 19:00 0.2 l/m2 in 12 Std. Regen
Mi, 16.01. 13:00 0.1 l/m2 in 6 Std. Regen
Ortszeit Niederschlagsmenge Niederschlagsart
Fr, 18.01. 10:30 0.0 l/m2 in 1 Std. -
Fr, 18.01. 10:20 keine Meldung -
Fr, 18.01. 10:10 keine Meldung -
Fr, 18.01. 10:00 0.0 l/m2 in 1 Std. -
Fr, 18.01. 9:50 keine Meldung -
Fr, 18.01. 9:40 keine Meldung -
Fr, 18.01. 9:30 0.0 l/m2 in 1 Std. -
Fr, 18.01. 9:00 0.0 l/m2 in 1 Std. -
Fr, 18.01. 8:30 0.0 l/m2 in 1 Std. -
Fr, 18.01. 8:00 0.0 l/m2 in 1 Std. -
Fr, 18.01. 7:30 0.0 l/m2 in 1 Std. -
Ortszeit Stärke Spitze Richtung
km/h Bft. km/h Grad Sektor
Fr, 18.01. 7:00 19 3 50 280° W
Fr, 18.01. 1:00 35 5 56 320° NW
Do, 17.01. 19:00 28 4 69 340° N
Do, 17.01. 13:00 41 6 65 230° SW
Do, 17.01. 7:00 32 5 58 230° SW
Do, 17.01. 1:00 32 5 54 210° SW
Mi, 16.01. 19:00 31 5 50 210° SW
Mi, 16.01. 13:00 25 4 50 220° SW
Ortszeit Stärke Spitze Richtung
km/h Bft. km/h Grad Sektor
Fr, 18.01. 10:30 22 4 32 230° SW
Fr, 18.01. 10:20 22 4 - 230° SW
Fr, 18.01. 10:10 14 3 - 220° SW
Fr, 18.01. 10:00 17 3 22 210° SW
Fr, 18.01. 9:50 17 3 - 210° SW
Fr, 18.01. 9:40 19 3 - 210° SW
Fr, 18.01. 9:30 17 3 22 210° SW
Fr, 18.01. 9:00 17 3 28 230° SW
Fr, 18.01. 8:30 19 3 28 240° SW
Fr, 18.01. 8:00 15 3 26 240° SW
Fr, 18.01. 7:30 11 2 25 260° W
Ortszeit Untergrenze Bedeckung Gattung
total tief tief mittel hoch
Fr, 18.01. 7:00 - 0/8 0/8 - - -
Fr, 18.01. 1:00 1110 m 8/8 8/8 - - -
Do, 17.01. 19:00 180 m 8/8 8/8 - - -
Do, 17.01. 13:00 750 m 7/8 7/8 - - -
Do, 17.01. 7:00 720 m 3/8 3/8 - - -
Do, 17.01. 1:00 300 m 8/8 8/8 - - -
Mi, 16.01. 19:00 240 m 7/8 7/8 - - -
Mi, 16.01. 13:00 540 m 7/8 7/8 - - -
Ortszeit Bedeckungsgrad in Achtel und Wolkenuntergrenze
Fr, 18.01. 10:30 3(1320m) 4(1500m)
Fr, 18.01. 10:20 3(1320m) 4(1500m)
Fr, 18.01. 10:10 4(1500m)
Fr, 18.01. 10:00 6(1500m)
Fr, 18.01. 9:50 6(1500m)
Fr, 18.01. 9:40 4(1500m)
Fr, 18.01. 9:30 5(1500m)
Fr, 18.01. 9:00 2(1500m)
Fr, 18.01. 8:30 keine Wolken
Fr, 18.01. 8:00 keine Wolken
Fr, 18.01. 7:30 keine Wolken
Ortszeit Luftdruck NN (hPa) Tendenz (hPa in 3 Std.)
Fr, 18.01. 7:00 1013 + 2,6
Fr, 18.01. 1:00 1006 + 4,3
Do, 17.01. 19:00 998 + 3,4
Do, 17.01. 13:00 994 - 0,8
Do, 17.01. 7:00 994 + 0,2
Do, 17.01. 1:00 995 - 2,5
Mi, 16.01. 19:00 999 - 1,5
Mi, 16.01. 13:00 1002 - 1,9
Ortszeit Luftdruck NN (hPa) Tendenz (hPa in 3 Std.)
Fr, 18.01. 10:30 1015 + 1,7
Fr, 18.01. 10:20 1015 keine Meldung
Fr, 18.01. 10:10 1015 keine Meldung
Fr, 18.01. 10:00 1015 + 1,8
Fr, 18.01. 9:50 1015 keine Meldung
Fr, 18.01. 9:40 1015 keine Meldung
Fr, 18.01. 9:30 1015 + 1,9
Fr, 18.01. 9:00 1015 + 2,2
Fr, 18.01. 8:30 1014 + 2,3
Fr, 18.01. 8:00 1014 + 2,6
Fr, 18.01. 7:30 1014 + 2,5
Ortszeit Schneehöhe (cm)
Fr, 18.01. 7:00 0
Fr, 18.01. 1:00 0
Do, 17.01. 19:00 -
Do, 17.01. 13:00 -
Do, 17.01. 7:00 -
Do, 17.01. 1:00 -
Mi, 16.01. 19:00 -
Mi, 16.01. 13:00 -
Ortszeit Schneehöhe (cm)
Fr, 18.01. 10:30 0
Fr, 18.01. 10:20 0
Fr, 18.01. 10:10 0
Fr, 18.01. 10:00 0
Fr, 18.01. 9:50 0
Fr, 18.01. 9:40 0
Fr, 18.01. 9:30 0
Fr, 18.01. 9:00 0
Fr, 18.01. 8:30 0
Fr, 18.01. 8:00 0
Fr, 18.01. 7:30 0
Link zu dieser Seite / Seite empfehlen

Das Wetter in ...